AAL137 EGLL-KLAX
Flight info
| Callsign | AAL137 |
|---|---|
| Flight time | N/A |
| Altitude | 36000 |
| Route | ULTIB T420 TNT UL28 PENIL DCT DEJEM DCT OZRAT DCT WETFI DCT REVNU/N0472F380 DCT PIKIL/M082F380 DCT 5630N02000W 5730N03000W 5830N04000W 5930N05000W DCT URTAK/N0485F400 DCT LAKES DCT 57N070W 55N080W 5230N09000W DCT KP18A DCT KU06W DCT KD87U DCT KU54O DCT NORRA J107 BLD DCT HAKMN ANJLL4 |
| Aircraft | B772/H-SDE2E3FGHIJ5LORVWXY/LB1D1 |
Departure
| Time | 2026-05-06 00:56 |
|---|---|
| Airport | London Heathrow Airport (EGLL) |
Arrival
| Time | N/A |
|---|---|
| Airport | Los Angeles International Airport (KLAX) |
| Time | Latitude | Longitude | Altitude | Speed | Heading |
|---|---|---|---|---|---|
| 2026-05-06 00:34 | 51.46980 | -0.46298 | 93 ft | 0 kts | 235° |
| 2026-05-06 00:44 | 51.46989 | -0.46278 | 92 ft | 4 kts | 235° |
| 2026-05-06 00:44 | 51.47004 | -0.46243 | 94 ft | 4 kts | 235° |
| 2026-05-06 00:44 | 51.47016 | -0.46215 | 93 ft | 4 kts | 247° |
| 2026-05-06 00:45 | 51.47018 | -0.46182 | 91 ft | 4 kts | 317° |
| 2026-05-06 00:45 | 51.47023 | -0.46186 | 92 ft | 4 kts | 325° |
| 2026-05-06 00:45 | 51.47030 | -0.46194 | 93 ft | 0 kts | 325° |
| 2026-05-06 00:48 | 51.47036 | -0.46200 | 91 ft | 3 kts | 325° |
| 2026-05-06 00:48 | 51.47069 | -0.46237 | 94 ft | 8 kts | 326° |
| 2026-05-06 00:49 | 51.47128 | -0.46300 | 94 ft | 12 kts | 326° |
| 2026-05-06 00:49 | 51.47207 | -0.46386 | 93 ft | 15 kts | 326° |
| 2026-05-06 00:49 | 51.47239 | -0.46551 | 90 ft | 18 kts | 270° |
| 2026-05-06 00:49 | 51.47238 | -0.46740 | 90 ft | 13 kts | 269° |
| 2026-05-06 00:50 | 51.47213 | -0.46859 | 92 ft | 13 kts | 208° |
| 2026-05-06 00:50 | 51.47111 | -0.46863 | 92 ft | 17 kts | 178° |
| 2026-05-06 00:50 | 51.46996 | -0.46863 | 90 ft | 16 kts | 180° |
| 2026-05-06 00:50 | 51.46888 | -0.46862 | 93 ft | 14 kts | 179° |
| 2026-05-06 00:51 | 51.46792 | -0.46860 | 91 ft | 12 kts | 180° |
| 2026-05-06 00:51 | 51.46747 | -0.46963 | 94 ft | 15 kts | 267° |
| 2026-05-06 00:51 | 51.46747 | -0.47148 | 94 ft | 19 kts | 270° |
| 2026-05-06 00:51 | 51.46746 | -0.47375 | 94 ft | 22 kts | 269° |
| 2026-05-06 00:52 | 51.46745 | -0.47639 | 92 ft | 25 kts | 270° |
| 2026-05-06 00:52 | 51.46745 | -0.47897 | 90 ft | 22 kts | 270° |
| 2026-05-06 00:52 | 51.46744 | -0.48138 | 90 ft | 22 kts | 270° |
| 2026-05-06 00:52 | 51.46744 | -0.48380 | 90 ft | 22 kts | 270° |
| 2026-05-06 00:53 | 51.46741 | -0.48613 | 90 ft | 13 kts | 269° |
| 2026-05-06 00:53 | 51.46738 | -0.48706 | 90 ft | 8 kts | 255° |
| 2026-05-06 00:53 | 51.46694 | -0.48744 | 95 ft | 8 kts | 184° |
| 2026-05-06 00:53 | 51.46640 | -0.48750 | 91 ft | 8 kts | 188° |
| 2026-05-06 00:54 | 51.46589 | -0.48773 | 93 ft | 8 kts | 196° |
| 2026-05-06 00:54 | 51.46537 | -0.48792 | 92 ft | 8 kts | 180° |
| 2026-05-06 00:54 | 51.46491 | -0.48753 | 93 ft | 8 kts | 127° |
| 2026-05-06 00:54 | 51.46479 | -0.48670 | 93 ft | 8 kts | 91° |
| 2026-05-06 00:55 | 51.46479 | -0.48584 | 90 ft | 9 kts | 89° |
| 2026-05-06 00:55 | 51.46479 | -0.48236 | 93 ft | 59 kts | 89° |
| 2026-05-06 00:55 | 51.46484 | -0.47245 | 94 ft | 117 kts | 90° |
| 2026-05-06 00:55 | 51.46485 | -0.45677 | 96 ft | 163 kts | 87° |
| 2026-05-06 00:56 | 51.46491 | -0.43811 | 585 ft | 166 kts | 88° |
| 2026-05-06 00:56 | 51.46577 | -0.41947 | 1193 ft | 166 kts | 70° |
| 2026-05-06 00:56 | 51.47122 | -0.40370 | 1809 ft | 161 kts | 53° |
| 2026-05-06 00:56 | 51.47856 | -0.38869 | 1963 ft | 180 kts | 50° |
| 2026-05-06 00:57 | 51.48694 | -0.37255 | 2130 ft | 196 kts | 50° |
| 2026-05-06 00:57 | 51.49616 | -0.35489 | 2248 ft | 216 kts | 50° |
| 2026-05-06 00:57 | 51.50609 | -0.33589 | 2476 ft | 233 kts | 50° |
| 2026-05-06 00:57 | 51.51669 | -0.31561 | 2897 ft | 241 kts | 50° |
| 2026-05-06 00:58 | 51.52540 | -0.29202 | 3263 ft | 246 kts | 71° |
| 2026-05-06 00:58 | 51.53021 | -0.26576 | 3675 ft | 252 kts | 70° |
| 2026-05-06 00:58 | 51.53580 | -0.23895 | 4288 ft | 253 kts | 69° |
| 2026-05-06 00:58 | 51.54168 | -0.21172 | 4802 ft | 257 kts | 66° |
| 2026-05-06 00:59 | 51.55140 | -0.18780 | 5044 ft | 262 kts | 35° |
| 2026-05-06 00:59 | 51.56810 | -0.17797 | 5547 ft | 260 kts | 359° |
| 2026-05-06 00:59 | 51.58528 | -0.18543 | 5883 ft | 257 kts | 324° |
| 2026-05-06 00:59 | 51.59821 | -0.20508 | 6004 ft | 260 kts | 314° |
| 2026-05-06 01:00 | 51.61153 | -0.22441 | 6018 ft | 261 kts | 322° |
| 2026-05-06 01:00 | 51.62623 | -0.24130 | 6022 ft | 259 kts | 324° |
| 2026-05-06 01:00 | 51.64124 | -0.25810 | 6017 ft | 261 kts | 326° |
| 2026-05-06 01:00 | 51.65622 | -0.27387 | 6032 ft | 260 kts | 327° |
| 2026-05-06 01:01 | 51.67150 | -0.28929 | 6148 ft | 258 kts | 328° |
| 2026-05-06 01:01 | 51.68698 | -0.30441 | 6777 ft | 256 kts | 328° |
| 2026-05-06 01:01 | 51.70235 | -0.31930 | 7263 ft | 261 kts | 328° |
| 2026-05-06 01:01 | 51.71784 | -0.33422 | 7668 ft | 265 kts | 328° |
| 2026-05-06 01:02 | 51.73372 | -0.34951 | 8155 ft | 269 kts | 329° |
| 2026-05-06 01:02 | 51.74987 | -0.36502 | 8676 ft | 268 kts | 329° |
| 2026-05-06 01:02 | 51.76595 | -0.38046 | 9193 ft | 268 kts | 329° |
| 2026-05-06 01:02 | 51.78211 | -0.39600 | 9618 ft | 270 kts | 329° |
| 2026-05-06 01:03 | 51.79824 | -0.41150 | 10095 ft | 271 kts | 329° |
| 2026-05-06 01:03 | 51.81483 | -0.42751 | 10231 ft | 285 kts | 329° |
| 2026-05-06 01:03 | 51.83231 | -0.44456 | 10403 ft | 301 kts | 329° |
| 2026-05-06 01:03 | 51.85081 | -0.46264 | 10503 ft | 321 kts | 329° |
| 2026-05-06 01:04 | 51.87027 | -0.48169 | 10864 ft | 331 kts | 328° |
| 2026-05-06 01:04 | 51.89012 | -0.50112 | 11441 ft | 337 kts | 328° |
| 2026-05-06 01:04 | 51.91027 | -0.52084 | 12196 ft | 339 kts | 328° |
| 2026-05-06 01:04 | 51.93060 | -0.54078 | 12938 ft | 344 kts | 328° |
| 2026-05-06 01:05 | 51.95126 | -0.56103 | 13675 ft | 349 kts | 328° |
| 2026-05-06 01:05 | 51.97216 | -0.58143 | 14360 ft | 353 kts | 328° |
| 2026-05-06 01:05 | 51.99339 | -0.60212 | 15026 ft | 358 kts | 327° |
| 2026-05-06 01:05 | 52.01484 | -0.62305 | 15703 ft | 362 kts | 327° |
| 2026-05-06 01:06 | 52.03654 | -0.64428 | 16375 ft | 366 kts | 327° |
| 2026-05-06 01:06 | 52.05846 | -0.66574 | 17027 ft | 371 kts | 327° |
| 2026-05-06 01:06 | 52.08078 | -0.68760 | 17652 ft | 377 kts | 327° |
| 2026-05-06 01:06 | 52.10336 | -0.70976 | 18317 ft | 381 kts | 327° |
| 2026-05-06 01:07 | 52.12620 | -0.73220 | 18940 ft | 385 kts | 327° |
| 2026-05-06 01:07 | 52.14917 | -0.75487 | 19560 ft | 388 kts | 327° |
| 2026-05-06 01:07 | 52.17230 | -0.77779 | 20179 ft | 391 kts | 327° |
| 2026-05-06 01:07 | 52.19565 | -0.80096 | 20797 ft | 395 kts | 327° |
| 2026-05-06 01:08 | 52.21923 | -0.82437 | 21414 ft | 399 kts | 327° |
| 2026-05-06 01:08 | 52.24298 | -0.84798 | 22010 ft | 402 kts | 327° |
| 2026-05-06 01:08 | 52.26670 | -0.87154 | 22606 ft | 406 kts | 327° |
| 2026-05-06 01:08 | 52.29096 | -0.89559 | 23218 ft | 410 kts | 327° |
| 2026-05-06 01:09 | 52.31547 | -0.91989 | 23771 ft | 414 kts | 326° |
| 2026-05-06 01:09 | 52.34012 | -0.94437 | 24257 ft | 417 kts | 326° |
| 2026-05-06 01:09 | 52.36502 | -0.96913 | 24746 ft | 421 kts | 326° |
| 2026-05-06 01:09 | 52.39012 | -0.99414 | 25214 ft | 424 kts | 327° |
| 2026-05-06 01:10 | 52.41534 | -1.01931 | 25780 ft | 425 kts | 326° |
| 2026-05-06 01:10 | 52.44060 | -1.04453 | 26275 ft | 427 kts | 326° |
| 2026-05-06 01:10 | 52.46608 | -1.07001 | 26721 ft | 430 kts | 326° |
| 2026-05-06 01:10 | 52.49167 | -1.09566 | 27125 ft | 434 kts | 326° |
| 2026-05-06 01:11 | 52.51748 | -1.12175 | 27535 ft | 437 kts | 326° |
| 2026-05-06 01:11 | 52.54337 | -1.14807 | 28011 ft | 438 kts | 326° |
| 2026-05-06 01:11 | 52.56934 | -1.17446 | 28434 ft | 440 kts | 327° |
| 2026-05-06 01:11 | 52.59552 | -1.20097 | 28817 ft | 444 kts | 327° |
| 2026-05-06 01:12 | 52.62190 | -1.22767 | 29173 ft | 447 kts | 327° |
| 2026-05-06 01:12 | 52.64845 | -1.25458 | 29522 ft | 449 kts | 327° |
| 2026-05-06 01:12 | 52.67515 | -1.28168 | 29888 ft | 452 kts | 327° |
| 2026-05-06 01:12 | 52.70197 | -1.30897 | 30204 ft | 454 kts | 327° |
| 2026-05-06 01:13 | 52.72894 | -1.33641 | 30504 ft | 456 kts | 327° |
| 2026-05-06 01:13 | 52.75597 | -1.36392 | 30855 ft | 458 kts | 327° |
| 2026-05-06 01:13 | 52.78319 | -1.39165 | 31132 ft | 460 kts | 327° |
| 2026-05-06 01:13 | 52.81051 | -1.41953 | 31393 ft | 463 kts | 327° |
| 2026-05-06 01:14 | 52.86546 | -1.47575 | 31896 ft | 466 kts | 327° |
| 2026-05-06 01:14 | 52.89302 | -1.50401 | 32121 ft | 468 kts | 327° |
| 2026-05-06 01:14 | 52.92071 | -1.53245 | 32363 ft | 469 kts | 326° |
| 2026-05-06 01:15 | 52.94851 | -1.56105 | 32606 ft | 470 kts | 326° |
| 2026-05-06 01:15 | 52.97628 | -1.58967 | 32849 ft | 471 kts | 326° |
| 2026-05-06 01:15 | 53.00408 | -1.61834 | 33165 ft | 470 kts | 326° |
| 2026-05-06 01:15 | 53.03173 | -1.64690 | 33556 ft | 467 kts | 326° |
| 2026-05-06 01:16 | 53.05932 | -1.67546 | 33891 ft | 466 kts | 326° |
| 2026-05-06 01:16 | 53.08678 | -1.70398 | 34151 ft | 466 kts | 326° |
| 2026-05-06 01:16 | 53.11431 | -1.73266 | 34359 ft | 467 kts | 326° |
| 2026-05-06 01:16 | 53.14184 | -1.76137 | 34588 ft | 467 kts | 326° |
| 2026-05-06 01:17 | 53.16933 | -1.79008 | 34820 ft | 467 kts | 326° |
| 2026-05-06 01:17 | 53.18759 | -1.80916 | 34966 ft | 467 kts | 326° |
| 2026-05-06 01:17 | 53.21409 | -1.83996 | 35145 ft | 464 kts | 317° |
| 2026-05-06 01:17 | 53.23692 | -1.87789 | 35351 ft | 462 kts | 308° |
| 2026-05-06 01:18 | 53.25599 | -1.92073 | 35609 ft | 459 kts | 300° |
| 2026-05-06 01:18 | 53.27093 | -1.96769 | 35831 ft | 457 kts | 294° |
| 2026-05-06 01:18 | 53.28464 | -2.01560 | 35960 ft | 458 kts | 294° |
| 2026-05-06 01:18 | 53.29849 | -2.06376 | 36034 ft | 461 kts | 294° |
| 2026-05-06 01:19 | 53.32676 | -2.15989 | 36064 ft | 459 kts | 295° |
| 2026-05-06 01:19 | 53.35472 | -2.25525 | 36071 ft | 455 kts | 292° |
| 2026-05-06 01:20 | 53.37551 | -2.35495 | 36077 ft | 454 kts | 286° |
| 2026-05-06 01:20 | 53.39429 | -2.45602 | 36076 ft | 455 kts | 286° |
| 2026-05-06 01:21 | 53.41331 | -2.55714 | 36076 ft | 455 kts | 286° |
| 2026-05-06 01:21 | 53.43245 | -2.65839 | 36073 ft | 455 kts | 286° |
| 2026-05-06 01:22 | 53.45150 | -2.75966 | 36064 ft | 455 kts | 286° |
| 2026-05-06 01:22 | 53.47032 | -2.86028 | 36066 ft | 455 kts | 286° |
| 2026-05-06 01:23 | 53.48911 | -2.96166 | 36063 ft | 455 kts | 286° |
| 2026-05-06 01:23 | 53.50764 | -3.06308 | 36066 ft | 454 kts | 285° |
| 2026-05-06 01:24 | 53.52608 | -3.16462 | 36065 ft | 454 kts | 285° |
| 2026-05-06 01:24 | 53.54442 | -3.26597 | 36065 ft | 453 kts | 285° |
| 2026-05-06 01:25 | 53.56271 | -3.36753 | 36061 ft | 453 kts | 285° |
| 2026-05-06 01:25 | 53.58089 | -3.46902 | 36059 ft | 453 kts | 285° |
| 2026-05-06 01:26 | 53.59923 | -3.57063 | 36058 ft | 453 kts | 285° |
| 2026-05-06 01:26 | 53.61748 | -3.67217 | 36057 ft | 453 kts | 285° |
| 2026-05-06 01:27 | 53.63513 | -3.77403 | 36055 ft | 453 kts | 285° |
| 2026-05-06 01:27 | 53.65248 | -3.87613 | 36054 ft | 453 kts | 285° |
| 2026-05-06 01:28 | 53.66980 | -3.97834 | 36052 ft | 453 kts | 285° |
| 2026-05-06 01:28 | 53.68708 | -4.08056 | 36060 ft | 453 kts | 285° |
| 2026-05-06 01:29 | 53.70426 | -4.18273 | 36048 ft | 452 kts | 285° |
| 2026-05-06 01:29 | 53.72131 | -4.28476 | 36047 ft | 451 kts | 285° |
| 2026-05-06 01:30 | 53.73825 | -4.38666 | 36048 ft | 450 kts | 284° |
| 2026-05-06 01:30 | 53.75505 | -4.48842 | 36051 ft | 449 kts | 284° |
| 2026-05-06 01:31 | 53.77177 | -4.59014 | 36054 ft | 450 kts | 284° |
| 2026-05-06 01:31 | 53.78827 | -4.69145 | 36050 ft | 450 kts | 284° |
| 2026-05-06 01:32 | 53.80459 | -4.79348 | 36050 ft | 449 kts | 282° |
| 2026-05-06 01:32 | 53.81303 | -4.89807 | 36043 ft | 448 kts | 272° |
| 2026-05-06 01:33 | 53.81580 | -5.00340 | 36046 ft | 449 kts | 272° |
| 2026-05-06 01:33 | 53.81881 | -5.10903 | 36043 ft | 449 kts | 272° |
| 2026-05-06 01:34 | 53.82194 | -5.21458 | 36044 ft | 449 kts | 272° |
| 2026-05-06 01:34 | 53.82502 | -5.32015 | 36046 ft | 449 kts | 272° |
| 2026-05-06 01:35 | 53.82799 | -5.42570 | 36046 ft | 449 kts | 272° |
| 2026-05-06 01:35 | 53.83462 | -5.53050 | 36048 ft | 449 kts | 281° |
| 2026-05-06 01:36 | 53.85053 | -5.63271 | 36054 ft | 449 kts | 284° |
| 2026-05-06 01:36 | 53.86695 | -5.73462 | 36065 ft | 449 kts | 284° |
| 2026-05-06 01:37 | 53.88310 | -5.83676 | 36048 ft | 449 kts | 284° |
| 2026-05-06 01:37 | 53.89906 | -5.93899 | 36054 ft | 448 kts | 284° |
| 2026-05-06 01:38 | 53.91486 | -6.04114 | 36060 ft | 448 kts | 284° |
| 2026-05-06 01:38 | 53.93057 | -6.14326 | 36056 ft | 448 kts | 283° |
| 2026-05-06 01:39 | 53.94619 | -6.24548 | 36061 ft | 447 kts | 283° |
| 2026-05-06 01:39 | 53.96174 | -6.34783 | 36058 ft | 447 kts | 283° |
| 2026-05-06 01:40 | 53.97720 | -6.45020 | 36063 ft | 447 kts | 283° |
| 2026-05-06 01:40 | 53.99256 | -6.55261 | 36071 ft | 447 kts | 283° |
| 2026-05-06 01:41 | 54.00783 | -6.65505 | 36067 ft | 447 kts | 283° |
| 2026-05-06 01:41 | 54.02301 | -6.75753 | 36071 ft | 447 kts | 283° |
| 2026-05-06 01:42 | 54.03810 | -6.86015 | 36071 ft | 447 kts | 283° |
| 2026-05-06 01:42 | 54.05301 | -6.96211 | 36086 ft | 447 kts | 283° |
| 2026-05-06 01:43 | 54.06793 | -7.06485 | 36080 ft | 447 kts | 283° |
| 2026-05-06 01:43 | 54.08274 | -7.16752 | 36077 ft | 446 kts | 283° |
| 2026-05-06 01:44 | 54.09743 | -7.27006 | 36082 ft | 446 kts | 283° |
| 2026-05-06 01:44 | 54.11206 | -7.37281 | 36079 ft | 446 kts | 283° |
| 2026-05-06 01:45 | 54.12658 | -7.47550 | 36080 ft | 446 kts | 283° |
| 2026-05-06 01:45 | 54.14103 | -7.57834 | 36086 ft | 446 kts | 282° |
| 2026-05-06 01:46 | 54.15539 | -7.68132 | 36091 ft | 447 kts | 282° |
| 2026-05-06 01:46 | 54.16969 | -7.78449 | 36077 ft | 447 kts | 282° |
| 2026-05-06 01:47 | 54.18391 | -7.88783 | 36094 ft | 447 kts | 282° |
| 2026-05-06 01:47 | 54.19805 | -7.99135 | 36084 ft | 447 kts | 282° |
| 2026-05-06 01:48 | 54.21210 | -8.09483 | 36086 ft | 447 kts | 282° |
| 2026-05-06 01:48 | 54.22605 | -8.19838 | 36101 ft | 447 kts | 282° |
| 2026-05-06 01:49 | 54.23993 | -8.30208 | 36088 ft | 447 kts | 282° |